Terminal Aerodrome Forecast
Issued by NWS

Home | Current Version | Previous Version | Text Only | Print | Product List | Glossary On
Versions: 1 2 3 4 5 6 7 8 9 10 11 12 13 14
000
FTAK31 PANC 300543
TAFAAQ
TAF
PAAQ 300543Z 3006/3106 07009KT P6SM VCSH BKN040 OVC080
     FM300900 13011KT P6SM BKN090
     FM302100 15009G17KT P6SM OVC050=

USA.gov is the U.S. government's official web portal to all federal, state and local government web resources and services.